createdAt,value
2022-12-08T00:02:03.446Z,7.83
2022-12-08T00:04:52.384Z,7.47
2022-12-08T00:07:39.729Z,8.30
2022-12-08T00:10:25.522Z,7.43
2022-12-08T00:12:58.335Z,8.00
2022-12-08T00:15:26.558Z,8.00
2022-12-08T00:17:54.913Z,8.30
2022-12-08T00:20:23.162Z,7.93
2022-12-08T00:22:52.793Z,7.43
2022-12-08T00:25:21.114Z,7.43
2022-12-08T00:27:49.377Z,8.43
2022-12-08T00:30:18.064Z,8.10
2022-12-08T00:32:46.468Z,8.77
2022-12-08T00:35:14.804Z,7.87
2022-12-08T00:37:43.124Z,8.50
2022-12-08T00:40:13.114Z,7.63
2022-12-08T00:42:41.369Z,7.73
2022-12-08T00:45:10.638Z,7.90
2022-12-08T00:47:38.882Z,8.10
2022-12-08T00:50:09.201Z,7.80
2022-12-08T00:52:37.587Z,8.03
2022-12-08T00:55:06.999Z,7.60
2022-12-08T00:57:36.666Z,7.60
2022-12-08T01:00:06.986Z,8.57
2022-12-08T01:02:35.494Z,7.47
2022-12-08T01:05:03.837Z,7.93
2022-12-08T01:07:32.169Z,8.33
2022-12-08T01:10:00.866Z,6.90
2022-12-08T01:12:30.957Z,8.37
2022-12-08T01:15:02.591Z,8.40
2022-12-08T01:17:31.263Z,7.20
2022-12-08T01:19:59.594Z,8.07
2022-12-08T01:22:27.816Z,7.90
2022-12-08T01:24:56.020Z,7.03
2022-12-08T01:27:24.373Z,8.63
2022-12-08T01:29:52.713Z,8.40
2022-12-08T01:32:22.354Z,7.83
2022-12-08T01:34:50.603Z,7.33
2022-12-08T01:37:18.884Z,7.53
2022-12-08T01:39:47.136Z,7.80
2022-12-08T01:42:23.345Z,8.03
2022-12-08T01:44:59.043Z,8.20
2022-12-08T01:47:37.280Z,7.60
2022-12-08T01:50:10.492Z,7.57
2022-12-08T01:52:42.220Z,7.27
2022-12-08T01:55:17.727Z,8.67
2022-12-08T01:57:50.680Z,8.07
2022-12-08T02:00:22.284Z,7.70
2022-12-08T02:03:00.166Z,8.00
2022-12-08T02:05:33.019Z,7.93
2022-12-08T02:08:06.772Z,7.77
2022-12-08T02:10:38.459Z,7.23
2022-12-08T02:13:10.981Z,7.33
2022-12-08T02:15:59.472Z,7.60
2022-12-08T02:19:02.097Z,7.77
2022-12-08T02:21:46.362Z,7.90
2022-12-08T02:24:23.823Z,8.80
2022-12-08T02:27:29.499Z,8.80
2022-12-08T02:30:16.386Z,7.90
2022-12-08T02:33:26.608Z,8.20
2022-12-08T02:36:02.483Z,7.37
2022-12-08T02:38:47.111Z,7.50
2022-12-08T02:41:27.852Z,7.10
2022-12-08T02:44:02.805Z,8.33
2022-12-08T02:46:38.591Z,7.63
2022-12-08T02:49:08.241Z,7.90
2022-12-08T02:51:37.980Z,7.90
2022-12-08T02:54:06.507Z,6.80
2022-12-08T02:57:04.428Z,7.77
2022-12-08T02:59:53.977Z,7.70
2022-12-08T03:02:46.629Z,8.03
2022-12-08T03:05:30.056Z,7.47
2022-12-08T03:08:10.183Z,7.93
2022-12-08T03:10:44.683Z,8.43
2022-12-08T03:13:17.240Z,8.47
2022-12-08T03:15:50.082Z,7.77
2022-12-08T03:18:20.406Z,7.37
2022-12-08T03:20:50.325Z,7.87
2022-12-08T03:23:21.672Z,8.23
2022-12-08T03:25:58.852Z,8.50
2022-12-08T03:28:27.381Z,8.17
2022-12-08T03:31:00.112Z,7.80
2022-12-08T03:33:34.123Z,8.00
2022-12-08T03:36:05.817Z,9.93
2022-12-08T03:38:42.235Z,10.13
2022-12-08T03:41:20.049Z,10.57
2022-12-08T03:43:50.174Z,10.33
2022-12-08T03:48:47.840Z,8.87
2022-12-08T03:51:16.987Z,8.77
2022-12-08T03:53:47.433Z,7.40
2022-12-08T03:56:29.521Z,7.90
2022-12-08T03:58:58.024Z,8.27
2022-12-08T04:01:27.494Z,9.43
2022-12-08T04:03:56.082Z,8.43
2022-12-08T04:06:24.676Z,8.83
2022-12-08T04:08:54.580Z,9.00
2022-12-08T04:11:23.018Z,8.93
2022-12-08T04:13:51.302Z,8.23
2022-12-08T04:16:21.721Z,7.67
2022-12-08T04:18:50.296Z,8.93
2022-12-08T04:21:19.314Z,8.50
2022-12-08T04:23:48.020Z,8.20
2022-12-08T04:26:18.671Z,8.47
2022-12-08T04:28:47.201Z,8.63
2022-12-08T04:31:15.547Z,7.67
2022-12-08T04:33:43.972Z,7.23
2022-12-08T04:36:12.349Z,8.30
2022-12-08T04:38:40.632Z,8.60
2022-12-08T04:41:09.329Z,7.70
2022-12-08T04:43:39.012Z,7.97
2022-12-08T04:46:09.249Z,8.17
2022-12-08T04:48:39.708Z,7.57
2022-12-08T04:51:09.323Z,7.90
2022-12-08T04:53:42.036Z,7.67
2022-12-08T04:56:14.476Z,8.53
2022-12-08T04:58:44.232Z,8.17
2022-12-08T05:01:13.328Z,8.30
2022-12-08T05:03:41.733Z,8.93
2022-12-08T05:06:13.494Z,8.30
2022-12-08T05:08:41.950Z,8.60
2022-12-08T05:11:12.841Z,7.40
2022-12-08T05:13:41.198Z,7.90
2022-12-08T05:16:13.929Z,8.30
2022-12-08T05:18:43.757Z,8.43
2022-12-08T05:21:12.165Z,8.63
2022-12-08T05:23:40.706Z,9.37
2022-12-08T05:26:09.013Z,8.97
2022-12-08T05:28:42.357Z,8.47
2022-12-08T05:31:14.164Z,8.70
2022-12-08T05:33:42.903Z,8.40
2022-12-08T05:36:13.622Z,8.30
2022-12-08T05:38:42.430Z,8.87
2022-12-08T05:41:13.864Z,9.13
2022-12-08T05:43:42.205Z,9.53
2022-12-08T05:46:12.661Z,8.90
2022-12-08T05:48:41.481Z,9.47
2022-12-08T05:51:19.746Z,8.53
2022-12-08T05:53:49.388Z,9.23
2022-12-08T05:56:18.080Z,9.70
2022-12-08T05:58:46.677Z,9.43
2022-12-08T06:01:23.231Z,9.10
2022-12-08T06:03:51.552Z,9.43
2022-12-08T06:06:19.891Z,9.17
2022-12-08T06:08:48.372Z,10.20
2022-12-08T06:11:20.331Z,9.30
2022-12-08T06:13:49.390Z,10.57
2022-12-08T06:16:18.277Z,9.60
2022-12-08T06:18:48.384Z,8.53
2022-12-08T06:21:18.299Z,10.13
2022-12-08T06:23:50.008Z,8.87
2022-12-08T06:26:19.365Z,8.97
2022-12-08T06:28:48.095Z,9.97
2022-12-08T06:31:19.211Z,9.07
2022-12-08T06:33:49.677Z,10.00
2022-12-08T06:36:21.629Z,10.03
2022-12-08T06:38:50.390Z,9.50
2022-12-08T06:41:19.028Z,9.77
2022-12-08T06:43:47.498Z,9.47
2022-12-08T06:46:18.358Z,8.90
2022-12-08T06:48:48.881Z,9.37
2022-12-08T06:51:19.691Z,9.13
2022-12-08T06:53:48.262Z,9.07
2022-12-08T06:56:19.937Z,9.00
2022-12-08T06:58:52.333Z,10.03
2022-12-08T07:01:21.393Z,9.33
2022-12-08T07:03:51.101Z,9.90
2022-12-08T07:06:23.764Z,10.37
2022-12-08T07:08:52.120Z,9.87
2022-12-08T07:11:22.299Z,10.67
2022-12-08T07:13:51.687Z,10.90
2022-12-08T07:16:20.506Z,11.77
2022-12-08T07:18:50.618Z,11.10
2022-12-08T07:21:19.911Z,10.00
2022-12-08T07:23:55.991Z,10.47
2022-12-08T07:26:26.755Z,10.67
2022-12-08T07:28:55.039Z,9.37
2022-12-08T07:31:26.805Z,11.17
2022-12-08T07:33:58.168Z,10.37
2022-12-08T07:36:27.115Z,9.73
2022-12-08T07:38:55.744Z,11.23
2022-12-08T07:41:26.607Z,11.23
2022-12-08T07:43:55.438Z,11.43
2022-12-08T07:46:25.959Z,11.10
2022-12-08T07:48:57.121Z,11.47
2022-12-08T07:51:25.994Z,11.07
2022-12-08T07:53:55.244Z,12.03
2022-12-08T07:56:23.985Z,11.77
2022-12-08T07:58:52.501Z,11.63
2022-12-08T08:01:24.145Z,11.30
2022-12-08T08:03:52.648Z,11.67
2022-12-08T08:06:22.386Z,10.77
2022-12-08T08:08:51.103Z,11.83
2022-12-08T08:11:21.556Z,11.13
2022-12-08T08:13:50.567Z,11.90
2022-12-08T08:16:20.273Z,10.83
2022-12-08T08:18:49.952Z,11.37
2022-12-08T08:24:09.979Z,10.80
2022-12-08T08:26:38.712Z,11.17
2022-12-08T08:29:19.852Z,11.27
2022-12-08T08:31:48.100Z,11.53
2022-12-08T08:34:17.048Z,12.17
2022-12-08T08:36:46.823Z,11.33
2022-12-08T08:39:15.507Z,11.73
2022-12-08T08:41:43.858Z,12.20
2022-12-08T08:44:14.281Z,11.73
2022-12-08T08:46:42.689Z,11.33
2022-12-08T08:49:11.050Z,11.70
2022-12-08T08:51:39.348Z,11.67
2022-12-08T08:54:09.120Z,11.90
2022-12-08T08:56:37.379Z,11.73
2022-12-08T08:59:05.757Z,10.97
2022-12-08T09:01:35.320Z,11.73
2022-12-08T09:04:03.781Z,11.87
2022-12-08T09:06:32.159Z,12.80
2022-12-08T09:09:00.522Z,11.10
2022-12-08T09:11:30.172Z,11.13
2022-12-08T09:13:58.451Z,11.63
2022-12-08T09:16:26.850Z,11.90
2022-12-08T09:18:55.583Z,12.53
2022-12-08T09:21:26.723Z,12.87
2022-12-08T09:23:58.404Z,11.93
2022-12-08T09:26:29.268Z,12.40
2022-12-08T09:28:58.660Z,13.77
2022-12-08T09:31:27.324Z,13.07
2022-12-08T09:33:56.016Z,12.73
2022-12-08T09:36:24.340Z,12.53
2022-12-08T09:38:53.759Z,13.23
2022-12-08T09:41:38.974Z,13.23
2022-12-08T09:44:40.314Z,14.67
2022-12-08T09:47:27.486Z,14.80
2022-12-08T09:50:07.456Z,14.30
2022-12-08T09:52:43.156Z,13.27
2022-12-08T09:55:22.577Z,14.40
2022-12-08T09:58:02.168Z,14.27
2022-12-08T10:00:30.710Z,13.60
2022-12-08T10:03:00.117Z,14.10
2022-12-08T10:05:33.552Z,14.47
2022-12-08T10:08:11.009Z,13.33
2022-12-08T10:10:55.860Z,12.97
2022-12-08T10:13:34.503Z,12.80
2022-12-08T10:16:24.278Z,15.20
2022-12-08T10:19:02.908Z,13.93
2022-12-08T10:21:33.764Z,15.83
2022-12-08T10:24:14.111Z,15.47
2022-12-08T10:26:42.493Z,14.70
2022-12-08T10:29:14.526Z,14.17
2022-12-08T10:31:43.413Z,14.83
2022-12-08T10:34:19.605Z,15.40
2022-12-08T10:36:51.577Z,14.70
2022-12-08T10:39:34.625Z,15.13
2022-12-08T10:42:17.955Z,14.53
2022-12-08T10:45:21.526Z,14.03
2022-12-08T10:48:00.302Z,14.50
2022-12-08T10:50:35.716Z,15.53
2022-12-08T10:53:16.775Z,16.17
2022-12-08T10:55:47.703Z,16.57
2022-12-08T10:58:31.398Z,16.00
2022-12-08T11:01:05.688Z,15.60
2022-12-08T11:03:45.670Z,15.17
2022-12-08T11:06:19.992Z,14.97
2022-12-08T11:08:53.026Z,14.97
2022-12-08T11:11:29.057Z,16.50
2022-12-08T11:13:57.882Z,16.23
2022-12-08T11:16:29.055Z,22.07
2022-12-08T11:18:59.453Z,21.53
2022-12-08T11:21:37.728Z,14.97
2022-12-08T11:24:24.447Z,16.13
2022-12-08T11:26:57.650Z,14.83
2022-12-08T11:29:25.961Z,18.17
2022-12-08T11:32:02.216Z,17.00
2022-12-08T11:34:38.022Z,14.30
2022-12-08T11:37:10.881Z,14.97
2022-12-08T11:39:51.444Z,13.23
2022-12-08T11:42:24.660Z,13.10
2022-12-08T11:44:58.380Z,14.03
2022-12-08T11:47:32.318Z,13.70
2022-12-08T11:50:18.093Z,13.23
2022-12-08T11:52:51.587Z,13.40
2022-12-08T11:55:37.129Z,13.30
2022-12-08T11:58:19.301Z,12.57
2022-12-08T12:00:47.662Z,14.13
2022-12-08T12:03:29.756Z,13.67
2022-12-08T12:09:19.455Z,11.63
2022-12-08T12:12:16.606Z,9.77
2022-12-08T12:15:15.749Z,9.83
2022-12-08T12:17:49.203Z,10.73
2022-12-08T12:20:25.649Z,12.10
2022-12-08T12:23:00.077Z,11.57
2022-12-08T12:25:29.392Z,11.70
2022-12-08T12:28:03.855Z,11.50
2022-12-08T12:30:53.232Z,10.67
2022-12-08T12:33:23.857Z,10.40
2022-12-08T12:35:57.109Z,8.87
2022-12-08T12:38:50.562Z,10.00
2022-12-08T12:41:25.708Z,10.03
2022-12-08T12:44:26.895Z,9.83
2022-12-08T12:46:58.553Z,8.03
2022-12-08T12:49:53.496Z,9.57
2022-12-08T12:52:41.987Z,9.60
2022-12-08T12:55:29.975Z,9.57
2022-12-08T12:57:59.862Z,9.67
2022-12-08T13:00:29.065Z,10.10
2022-12-08T13:02:59.166Z,9.73
2022-12-08T13:05:30.577Z,10.20
2022-12-08T13:08:05.123Z,9.53
2022-12-08T13:10:36.605Z,9.50
2022-12-08T13:13:19.151Z,9.00
2022-12-08T13:15:53.443Z,8.50
2022-12-08T13:18:26.211Z,9.77
2022-12-08T13:21:03.853Z,10.23
2022-12-08T13:23:47.769Z,10.00
2022-12-08T13:26:22.294Z,11.20
2022-12-08T13:29:22.774Z,10.07
2022-12-08T13:31:53.758Z,10.00
2022-12-08T13:34:30.727Z,9.83
2022-12-08T13:37:14.981Z,11.53
2022-12-08T13:39:51.067Z,10.27
2022-12-08T13:42:26.150Z,10.30
2022-12-08T13:59:33.863Z,15.13
2022-12-08T14:02:06.771Z,14.80
2022-12-08T14:05:09.114Z,13.90
2022-12-08T14:07:24.946Z,13.10
2022-12-08T14:09:54.025Z,14.07
2022-12-08T14:12:26.740Z,14.53
2022-12-08T14:15:14.777Z,13.60
2022-12-08T14:17:52.823Z,13.67
2022-12-08T14:20:25.800Z,14.40
2022-12-08T14:22:54.843Z,12.83
2022-12-08T14:25:24.523Z,13.67
2022-12-08T14:28:00.692Z,13.93
2022-12-08T14:30:32.971Z,12.37
2022-12-08T14:33:03.624Z,13.30
2022-12-08T14:35:34.316Z,13.83
2022-12-08T14:38:05.086Z,13.53
2022-12-08T14:40:36.718Z,12.93
2022-12-08T14:43:17.827Z,13.27
2022-12-08T14:45:53.393Z,12.53
2022-12-08T14:48:27.031Z,12.53
2022-12-08T14:51:21.054Z,13.23
2022-12-08T14:53:54.957Z,12.47
2022-12-08T14:56:27.343Z,12.03
2022-12-08T14:59:11.696Z,12.57
2022-12-08T15:01:40.383Z,17.80
2022-12-08T15:04:17.017Z,14.47
2022-12-08T15:06:54.435Z,11.53
2022-12-08T15:09:33.688Z,11.97
2022-12-08T15:12:03.304Z,12.23
2022-12-08T15:14:36.909Z,11.63
2022-12-08T15:17:29.748Z,11.67
2022-12-08T15:19:59.054Z,10.90
2022-12-08T15:22:27.715Z,11.87
2022-12-08T15:24:56.836Z,12.10
2022-12-08T15:27:27.130Z,13.23
2022-12-08T15:29:56.729Z,12.50
2022-12-08T15:32:25.313Z,11.80
2022-12-08T15:34:53.567Z,12.47
2022-12-08T15:37:24.726Z,11.73
2022-12-08T15:39:53.856Z,11.37
2022-12-08T15:42:22.112Z,11.77
2022-12-08T15:44:51.478Z,12.97
2022-12-08T15:47:24.436Z,26.83
2022-12-08T15:49:53.792Z,24.97
2022-12-08T15:52:24.767Z,28.23
2022-12-08T15:54:53.116Z,20.93
2022-12-08T16:00:51.832Z,22.33
2022-12-08T16:09:12.900Z,29.87
2022-12-08T16:12:08.883Z,18.90
2022-12-08T16:17:28.637Z,16.27
2022-12-08T16:19:58.381Z,15.97
2022-12-08T16:25:20.392Z,16.57
2022-12-08T16:28:29.530Z,15.50
2022-12-08T16:30:39.509Z,15.90
2022-12-08T16:33:07.919Z,13.80
2022-12-08T16:35:37.510Z,12.13
2022-12-08T16:38:05.985Z,11.50
2022-12-08T16:40:54.417Z,10.87
2022-12-08T16:43:21.719Z,9.83
2022-12-08T16:45:49.997Z,11.77
2022-12-08T16:48:18.394Z,11.13
2022-12-08T16:50:48.058Z,12.57
2022-12-08T16:53:16.555Z,13.73
2022-12-08T16:55:48.212Z,15.50
2022-12-08T16:58:18.349Z,13.60
2022-12-08T17:00:46.997Z,12.10
2022-12-08T17:03:17.548Z,14.47
2022-12-08T17:05:47.329Z,13.93
2022-12-08T17:08:15.754Z,15.10
2022-12-08T17:10:44.114Z,16.47
2022-12-08T17:13:13.128Z,15.97
2022-12-08T17:15:41.603Z,15.60
2022-12-08T17:18:09.840Z,16.93
2022-12-08T17:20:38.152Z,14.10
2022-12-08T17:23:07.792Z,13.53
2022-12-08T17:25:37.343Z,13.13
2022-12-08T17:28:05.822Z,15.10
2022-12-08T17:30:34.072Z,14.47
2022-12-08T17:33:02.305Z,20.50
2022-12-08T17:35:30.526Z,16.67
2022-12-08T17:37:58.752Z,16.63
2022-12-08T17:40:28.579Z,15.77
2022-12-08T17:42:56.888Z,20.07
2022-12-08T17:45:25.203Z,22.13
2022-12-08T17:47:53.442Z,45.47
2022-12-08T17:50:21.857Z,33.87
2022-12-08T17:52:51.222Z,21.40
2022-12-08T17:55:19.466Z,16.50
2022-12-08T17:57:49.106Z,15.43
2022-12-08T18:00:17.896Z,15.47
2022-12-08T18:02:46.154Z,16.70
2022-12-08T18:05:14.445Z,20.30
2022-12-08T18:07:42.770Z,20.13
2022-12-08T18:10:11.176Z,22.00
2022-12-08T18:12:39.540Z,23.57
2022-12-08T18:15:13.015Z,20.33
2022-12-08T18:17:41.272Z,19.93
2022-12-08T18:20:11.217Z,18.17
2022-12-08T18:22:39.558Z,16.17
2022-12-08T18:25:09.505Z,16.07
2022-12-08T18:27:43.027Z,15.93
2022-12-08T18:30:19.075Z,15.13
2022-12-08T18:32:47.710Z,16.57
2022-12-08T18:35:16.180Z,20.57
2022-12-08T18:37:44.549Z,17.97
2022-12-08T18:40:14.644Z,16.03
2022-12-08T18:42:43.030Z,16.63
2022-12-08T18:45:17.902Z,17.77
2022-12-08T18:47:51.319Z,16.03
2022-12-08T18:50:19.975Z,17.73
2022-12-08T18:52:48.681Z,14.77
2022-12-08T18:55:17.144Z,14.70
2022-12-08T18:57:45.482Z,17.17
2022-12-08T19:00:18.955Z,16.20
2022-12-08T19:02:47.463Z,16.80
2022-12-08T19:05:16.451Z,16.17
2022-12-08T19:07:45.602Z,16.33
2022-12-08T19:10:14.271Z,15.37
2022-12-08T19:12:42.841Z,15.93
2022-12-08T19:15:12.331Z,17.30
2022-12-08T19:17:42.067Z,15.83
2022-12-08T19:20:12.140Z,19.80
2022-12-08T19:22:40.479Z,19.30
2022-12-08T19:25:09.632Z,19.20
2022-12-08T19:27:37.896Z,16.03
2022-12-08T19:30:08.458Z,16.13
2022-12-08T19:32:36.997Z,16.10
2022-12-08T19:35:07.541Z,14.40
2022-12-08T19:37:36.125Z,15.67
2022-12-08T19:40:22.332Z,15.37
2022-12-08T19:43:08.014Z,16.13
2022-12-08T19:45:37.700Z,16.23
2022-12-08T19:48:06.852Z,16.30
2022-12-08T19:50:40.525Z,16.40
2022-12-08T19:53:12.190Z,19.10
2022-12-08T19:55:41.359Z,17.43
2022-12-08T19:58:11.209Z,17.23
2022-12-08T20:00:41.283Z,17.57
2022-12-08T20:03:11.571Z,16.03
2022-12-08T20:05:43.039Z,16.80
2022-12-08T20:08:12.043Z,14.90
2022-12-08T20:10:44.026Z,15.83
2022-12-08T20:13:30.854Z,14.80
2022-12-08T20:15:59.533Z,14.53
2022-12-08T20:18:28.811Z,14.87
2022-12-08T20:20:58.585Z,14.03
2022-12-08T20:23:26.951Z,12.83
2022-12-08T20:25:55.316Z,12.30
2022-12-08T20:28:23.800Z,15.97
2022-12-08T20:30:52.469Z,15.23
2022-12-08T20:33:21.168Z,14.53
2022-12-08T20:36:00.845Z,12.47
2022-12-08T20:38:29.925Z,14.50
2022-12-08T20:40:59.064Z,18.60
2022-12-08T20:43:27.730Z,14.30
2022-12-08T20:45:59.207Z,11.87
2022-12-08T20:48:27.864Z,13.03
2022-12-08T20:50:56.224Z,12.77
2022-12-08T20:53:26.036Z,12.17
2022-12-08T20:55:54.812Z,12.33
2022-12-08T20:58:23.835Z,13.57
2022-12-08T21:00:52.394Z,14.00
2022-12-08T21:03:20.902Z,15.00
2022-12-08T21:05:51.017Z,17.07
2022-12-08T21:08:20.516Z,17.97
2022-12-08T21:10:56.150Z,16.13
2022-12-08T21:13:25.036Z,16.40
2022-12-08T21:15:53.829Z,17.30
2022-12-08T21:18:22.705Z,14.57
2022-12-08T21:20:51.542Z,14.33
2022-12-08T21:23:20.175Z,13.03
2022-12-08T21:25:49.118Z,13.43
2022-12-08T21:28:18.982Z,14.97
2022-12-08T21:30:47.473Z,15.07
2022-12-08T21:33:15.997Z,15.07
2022-12-08T21:35:44.650Z,14.37
2022-12-08T21:38:13.121Z,12.53
2022-12-08T21:40:41.527Z,13.77
2022-12-08T21:43:10.101Z,14.10
2022-12-08T21:45:39.968Z,13.63
2022-12-08T21:48:11.713Z,15.40
2022-12-08T21:50:40.567Z,12.50
2022-12-08T21:53:09.112Z,14.07
2022-12-08T21:55:37.666Z,13.73
2022-12-08T21:58:06.228Z,13.47
2022-12-08T22:00:34.689Z,15.33
2022-12-08T22:03:05.539Z,16.67
2022-12-08T22:05:36.611Z,15.63
2022-12-08T22:08:05.112Z,14.67
2022-12-08T22:10:33.735Z,15.53
2022-12-08T22:13:02.281Z,14.53
2022-12-08T22:18:11.464Z,14.30
2022-12-08T22:20:44.185Z,14.60
2022-12-08T22:23:12.985Z,14.00
2022-12-08T22:25:41.315Z,16.27
2022-12-08T22:28:09.594Z,17.13
2022-12-08T22:30:39.695Z,19.90
2022-12-08T22:33:09.452Z,19.40
2022-12-08T22:35:37.744Z,19.00
2022-12-08T22:38:06.029Z,18.63
2022-12-08T22:40:34.308Z,19.33
2022-12-08T22:43:02.814Z,19.33
2022-12-08T22:45:31.257Z,17.93
2022-12-08T22:47:59.768Z,17.23
2022-12-08T22:50:29.427Z,16.73
2022-12-08T22:52:57.702Z,17.07
2022-12-08T22:55:26.008Z,16.70
2022-12-08T22:57:54.331Z,18.00
2022-12-08T23:00:22.708Z,18.60
2022-12-08T23:02:51.256Z,17.50
2022-12-08T23:05:19.852Z,18.23
2022-12-08T23:07:49.553Z,20.97
2022-12-08T23:10:18.880Z,19.00
2022-12-08T23:12:47.134Z,17.57
2022-12-08T23:15:15.530Z,18.37
2022-12-08T23:17:44.005Z,19.93
2022-12-08T23:20:13.869Z,18.13
2022-12-08T23:22:42.107Z,19.87
2022-12-08T23:25:11.889Z,18.53
2022-12-08T23:27:40.351Z,19.03
2022-12-08T23:30:10.791Z,17.87
2022-12-08T23:32:39.641Z,17.60
2022-12-08T23:35:09.588Z,17.60
2022-12-08T23:37:38.033Z,18.87
2022-12-08T23:40:08.868Z,15.93
2022-12-08T23:42:38.902Z,18.13
2022-12-08T23:45:09.573Z,17.33
2022-12-08T23:47:38.056Z,19.23
2022-12-08T23:50:08.673Z,20.77
2022-12-08T23:52:39.513Z,18.40
2022-12-08T23:55:11.154Z,19.10
2022-12-08T23:57:41.028Z,20.67
